createdAt,value
2019-01-18T00:01:34.824Z,1.70
2019-01-18T00:04:04.104Z,1.80
2019-01-18T00:06:33.356Z,1.73
2019-01-18T00:09:02.775Z,1.60
2019-01-18T00:11:32.050Z,2.20
2019-01-18T00:14:01.270Z,1.60
2019-01-18T00:16:30.470Z,1.73
2019-01-18T00:18:59.692Z,1.47
2019-01-18T00:21:28.869Z,1.47
2019-01-18T00:23:59.625Z,1.20
2019-01-18T00:26:30.081Z,1.30
2019-01-18T00:28:59.336Z,1.37
2019-01-18T00:31:28.614Z,1.60
2019-01-18T00:33:57.785Z,1.60
2019-01-18T00:36:27.003Z,1.60
2019-01-18T00:38:56.256Z,1.80
2019-01-18T00:41:27.967Z,1.30
2019-01-18T00:43:57.106Z,1.70
2019-01-18T00:46:26.350Z,1.60
2019-01-18T00:48:55.538Z,1.73
2019-01-18T00:51:24.696Z,1.60
2019-01-18T00:53:53.863Z,1.80
2019-01-18T00:56:24.817Z,2.00
2019-01-18T00:58:54.160Z,1.97
2019-01-18T01:01:23.397Z,1.43
2019-01-18T01:03:52.626Z,2.00
2019-01-18T01:06:21.926Z,1.70
2019-01-18T01:08:51.554Z,1.80
2019-01-18T01:11:21.157Z,1.90
2019-01-18T01:13:50.487Z,2.47
2019-01-18T01:16:19.734Z,1.80
2019-01-18T01:18:49.190Z,1.50
2019-01-18T01:21:18.420Z,1.57
2019-01-18T01:23:47.645Z,2.27
2019-01-18T01:26:16.816Z,2.07
2019-01-18T01:28:45.938Z,1.70
2019-01-18T01:31:15.201Z,2.17
2019-01-18T01:33:44.335Z,1.70
2019-01-18T01:36:13.591Z,1.70
2019-01-18T01:38:42.731Z,2.00
2019-01-18T01:41:11.932Z,1.77
2019-01-18T01:43:41.195Z,1.90
2019-01-18T01:46:10.363Z,2.03
2019-01-18T01:48:40.893Z,2.03
2019-01-18T01:51:10.032Z,1.60
2019-01-18T01:53:39.397Z,1.70
2019-01-18T01:56:08.563Z,2.00
2019-01-18T01:58:37.703Z,1.80
2019-01-18T02:01:06.935Z,1.80
2019-01-18T02:03:48.240Z,1.90
2019-01-18T02:06:17.471Z,1.50
2019-01-18T02:08:46.689Z,2.00
2019-01-18T02:11:15.876Z,2.20
2019-01-18T02:13:45.272Z,2.10
2019-01-18T02:16:14.479Z,1.93
2019-01-18T02:18:43.633Z,2.17
2019-01-18T02:21:12.843Z,1.70
2019-01-18T02:23:42.060Z,1.90
2019-01-18T02:26:11.279Z,2.30
2019-01-18T02:28:40.501Z,2.13
2019-01-18T02:31:09.721Z,2.40
2019-01-18T02:33:38.876Z,2.13
2019-01-18T02:36:08.023Z,2.83
2019-01-18T02:38:37.289Z,2.10
2019-01-18T02:41:06.488Z,2.00
2019-01-18T02:43:35.647Z,1.60
2019-01-18T02:46:04.824Z,1.60
2019-01-18T02:48:33.936Z,1.80
2019-01-18T02:51:04.455Z,2.20
2019-01-18T02:53:33.667Z,1.60
2019-01-18T02:56:02.882Z,1.70
2019-01-18T02:58:32.098Z,2.20
2019-01-18T03:01:01.256Z,1.50
2019-01-18T03:03:30.505Z,1.50
2019-01-18T03:05:59.682Z,1.70
2019-01-18T03:08:28.933Z,1.30
2019-01-18T03:10:58.077Z,1.70
2019-01-18T03:13:27.224Z,1.97
2019-01-18T03:15:56.412Z,1.37
2019-01-18T03:18:25.659Z,1.50
2019-01-18T03:20:57.372Z,1.73
2019-01-18T03:23:26.553Z,1.70
2019-01-18T03:25:55.805Z,1.30
2019-01-18T03:28:24.957Z,1.30
2019-01-18T03:30:54.265Z,1.70
2019-01-18T03:33:23.445Z,1.30
2019-01-18T03:35:52.695Z,1.57
2019-01-18T03:38:21.859Z,1.63
2019-01-18T03:40:51.200Z,1.40
2019-01-18T03:43:20.353Z,1.50
2019-01-18T03:45:49.549Z,2.10
2019-01-18T03:48:18.670Z,1.73
2019-01-18T03:50:47.816Z,1.63
2019-01-18T03:53:16.977Z,1.80
2019-01-18T03:55:46.115Z,2.00
2019-01-18T03:58:15.276Z,1.60
2019-01-18T04:00:44.432Z,2.23
2019-01-18T04:03:13.692Z,2.20
2019-01-18T04:05:42.811Z,1.97
2019-01-18T04:08:11.946Z,1.80
2019-01-18T04:10:41.123Z,1.90
2019-01-18T04:13:10.352Z,1.50
2019-01-18T04:15:39.547Z,1.90
2019-01-18T04:18:08.667Z,1.60
2019-01-18T04:20:37.820Z,1.97
2019-01-18T04:23:06.978Z,2.10
2019-01-18T04:25:36.205Z,2.10
2019-01-18T04:28:05.564Z,1.70
2019-01-18T04:30:34.772Z,1.90
2019-01-18T04:33:03.890Z,2.07
2019-01-18T04:35:33.095Z,1.83
2019-01-18T04:38:02.308Z,2.40
2019-01-18T04:40:31.504Z,2.27
2019-01-18T04:43:00.737Z,2.27
2019-01-18T04:45:29.889Z,2.23
2019-01-18T04:47:59.059Z,2.30
2019-01-18T04:50:28.906Z,1.77
2019-01-18T04:52:58.134Z,1.77
2019-01-18T04:55:27.339Z,2.10
2019-01-18T04:57:58.018Z,1.93
2019-01-18T05:00:29.166Z,2.03
2019-01-18T05:02:58.329Z,2.13
2019-01-18T05:05:27.528Z,2.10
2019-01-18T05:07:58.439Z,2.00
2019-01-18T05:10:29.961Z,1.90
2019-01-18T05:12:59.834Z,1.70
2019-01-18T05:15:35.592Z,1.80
2019-01-18T05:18:04.759Z,2.00
2019-01-18T05:20:33.920Z,2.10
2019-01-18T05:23:03.092Z,1.70
2019-01-18T05:25:32.260Z,2.23
2019-01-18T05:28:01.456Z,2.90
2019-01-18T05:30:31.028Z,2.30
2019-01-18T05:33:00.230Z,2.20
2019-01-18T05:35:29.421Z,2.30
2019-01-18T05:37:58.627Z,2.23
2019-01-18T05:40:27.810Z,1.90
2019-01-18T05:42:57.140Z,2.10
2019-01-18T05:45:26.339Z,2.27
2019-01-18T05:47:56.663Z,2.20
2019-01-18T05:50:27.866Z,1.77
2019-01-18T05:53:01.552Z,2.10
2019-01-18T05:55:30.776Z,2.63
2019-01-18T05:58:00.012Z,2.10
2019-01-18T06:00:41.623Z,1.80
2019-01-18T06:03:10.944Z,2.20
2019-01-18T06:05:42.644Z,1.90
2019-01-18T06:08:11.775Z,2.17
2019-01-18T06:10:41.028Z,2.10
2019-01-18T06:13:10.206Z,2.80
2019-01-18T06:15:40.515Z,2.07
2019-01-18T06:18:10.169Z,2.17
2019-01-18T06:20:39.453Z,2.13
2019-01-18T06:23:08.661Z,2.10
2019-01-18T06:25:37.848Z,2.50
2019-01-18T06:28:06.947Z,2.13
2019-01-18T06:30:36.197Z,2.40
2019-01-18T06:33:05.695Z,2.40
2019-01-18T06:35:34.838Z,2.80
2019-01-18T06:38:04.172Z,2.77
2019-01-18T06:40:33.498Z,2.80
2019-01-18T06:43:02.699Z,2.53
2019-01-18T06:45:33.729Z,2.17
2019-01-18T06:48:02.924Z,3.00
2019-01-18T06:50:33.648Z,2.20
2019-01-18T06:53:02.905Z,2.30
2019-01-18T06:55:32.060Z,2.50
2019-01-18T06:58:01.296Z,2.27
2019-01-18T07:00:35.555Z,2.23
2019-01-18T07:03:05.882Z,2.70
2019-01-18T07:05:35.111Z,2.80
2019-01-18T07:08:04.453Z,2.60
2019-01-18T07:10:33.685Z,3.40
2019-01-18T07:13:02.976Z,3.30
2019-01-18T07:15:32.161Z,2.93
2019-01-18T07:18:01.427Z,3.60
2019-01-18T07:20:30.649Z,3.77
2019-01-18T07:23:02.924Z,3.60
2019-01-18T07:25:32.586Z,3.50
2019-01-18T07:28:01.828Z,3.60
2019-01-18T07:30:36.702Z,3.53
2019-01-18T07:33:08.456Z,3.50
2019-01-18T07:35:37.724Z,3.80
2019-01-18T07:38:06.983Z,4.40
2019-01-18T07:40:36.296Z,4.00
2019-01-18T07:43:05.813Z,4.13
2019-01-18T07:45:36.032Z,4.17
2019-01-18T07:48:05.779Z,4.10
2019-01-18T07:50:36.870Z,4.07
2019-01-18T07:53:07.682Z,3.90
2019-01-18T07:55:38.002Z,4.50
2019-01-18T07:58:07.404Z,4.23
2019-01-18T08:00:36.658Z,4.77
2019-01-18T08:03:05.881Z,4.73
2019-01-18T08:05:35.066Z,7.40
2019-01-18T08:08:04.809Z,4.90
2019-01-18T08:10:34.322Z,5.20
2019-01-18T08:13:03.660Z,4.23
2019-01-18T08:15:32.979Z,5.00
2019-01-18T08:18:02.086Z,3.90
2019-01-18T08:20:31.828Z,3.80
2019-01-18T08:23:03.119Z,4.17
2019-01-18T08:25:32.414Z,3.93
2019-01-18T08:28:04.975Z,3.07
2019-01-18T08:30:34.396Z,4.40
2019-01-18T08:33:03.561Z,4.00
2019-01-18T08:35:32.904Z,3.00
2019-01-18T08:38:02.095Z,3.67
2019-01-18T08:40:42.385Z,3.77
2019-01-18T08:43:13.689Z,2.90
2019-01-18T08:45:45.860Z,3.33
2019-01-18T08:48:15.046Z,2.70
2019-01-18T08:50:44.479Z,3.50
2019-01-18T08:53:13.936Z,3.30
2019-01-18T08:55:43.072Z,3.13
2019-01-18T08:58:12.328Z,2.97
2019-01-18T09:00:41.556Z,3.20
2019-01-18T09:03:10.848Z,4.00
2019-01-18T09:05:40.133Z,3.07
2019-01-18T09:08:09.277Z,2.90
2019-01-18T09:10:38.640Z,2.90
2019-01-18T09:13:07.906Z,4.03
2019-01-18T09:15:38.872Z,2.73
2019-01-18T09:18:08.091Z,3.00
2019-01-18T09:20:37.380Z,2.80
2019-01-18T09:23:06.633Z,3.10
2019-01-18T09:25:35.980Z,3.43
2019-01-18T09:28:05.224Z,3.27
2019-01-18T09:30:36.328Z,3.33
2019-01-18T09:33:08.011Z,2.70
2019-01-18T09:35:37.972Z,3.00
2019-01-18T09:38:10.623Z,2.70
2019-01-18T09:40:39.996Z,3.27
2019-01-18T09:43:10.141Z,2.90
2019-01-18T09:45:39.308Z,2.50
2019-01-18T09:48:10.323Z,2.93
2019-01-18T09:50:39.520Z,2.80
2019-01-18T09:53:10.652Z,3.30
2019-01-18T09:55:39.845Z,3.03
2019-01-18T09:58:09.133Z,3.30
2019-01-18T10:00:39.295Z,3.07
2019-01-18T10:03:08.660Z,3.30
2019-01-18T10:05:37.964Z,3.43
2019-01-18T10:08:09.962Z,3.10
2019-01-18T10:10:39.150Z,3.17
2019-01-18T10:13:08.427Z,2.77
2019-01-18T10:15:43.155Z,4.00
2019-01-18T10:18:12.489Z,2.37
2019-01-18T10:20:41.774Z,3.87
2019-01-18T10:23:11.043Z,3.97
2019-01-18T10:25:40.281Z,4.30
2019-01-18T10:28:09.405Z,3.80
2019-01-18T10:30:38.720Z,3.90
2019-01-18T10:33:07.955Z,4.03
2019-01-18T10:35:37.313Z,3.70
2019-01-18T10:38:06.492Z,3.83
2019-01-18T10:40:35.694Z,3.90
2019-01-18T10:43:05.065Z,3.87
2019-01-18T10:45:34.387Z,4.00
2019-01-18T10:48:06.811Z,4.20
2019-01-18T10:50:36.122Z,4.10
2019-01-18T10:53:05.589Z,3.80
2019-01-18T10:55:34.831Z,4.83
2019-01-18T10:58:05.692Z,3.87
2019-01-18T11:00:36.596Z,4.57
2019-01-18T11:03:06.044Z,4.40
2019-01-18T11:05:35.501Z,6.23
2019-01-18T11:08:07.761Z,4.47
2019-01-18T11:10:37.040Z,4.60
2019-01-18T11:13:06.408Z,5.20
2019-01-18T11:15:36.229Z,5.73
2019-01-18T11:18:06.151Z,5.13
2019-01-18T11:20:51.056Z,4.70
2019-01-18T11:23:19.550Z,5.50
2019-01-18T11:25:48.737Z,5.00
2019-01-18T11:28:18.009Z,5.37
2019-01-18T11:30:47.300Z,4.93
2019-01-18T11:33:16.550Z,5.50
2019-01-18T11:35:45.812Z,4.90
2019-01-18T11:38:15.064Z,5.10
2019-01-18T11:40:44.362Z,5.03
2019-01-18T11:43:13.600Z,5.20
2019-01-18T11:45:42.875Z,5.10
2019-01-18T11:48:12.117Z,4.80
2019-01-18T11:50:41.310Z,5.30
2019-01-18T11:53:10.569Z,5.73
2019-01-18T11:55:39.760Z,5.50
2019-01-18T11:58:08.966Z,5.40
2019-01-18T12:00:38.238Z,5.67
2019-01-18T12:03:07.463Z,5.10
2019-01-18T12:05:36.665Z,5.70
2019-01-18T12:08:07.381Z,4.70
2019-01-18T12:10:37.883Z,5.00
2019-01-18T12:13:07.183Z,5.20
2019-01-18T12:15:36.420Z,5.30
2019-01-18T12:18:05.706Z,5.70
2019-01-18T12:20:36.386Z,5.20
2019-01-18T12:23:06.916Z,5.67
2019-01-18T12:25:36.251Z,6.37
2019-01-18T12:28:07.565Z,6.53
2019-01-18T12:30:39.881Z,5.20
2019-01-18T12:33:09.117Z,5.20
2019-01-18T12:35:38.437Z,4.60
2019-01-18T12:38:07.667Z,5.20
2019-01-18T12:40:36.958Z,4.97
2019-01-18T12:43:06.123Z,4.97
2019-01-18T12:45:35.535Z,4.97
2019-01-18T12:48:05.611Z,5.80
2019-01-18T12:50:40.425Z,4.50
2019-01-18T12:53:10.910Z,5.10
2019-01-18T12:55:40.406Z,5.70
2019-01-18T12:58:09.695Z,4.80
2019-01-18T13:00:40.145Z,4.93
2019-01-18T13:03:09.884Z,4.50
2019-01-18T13:05:53.115Z,4.30
2019-01-18T13:08:22.492Z,5.10
2019-01-18T13:10:51.790Z,5.13
2019-01-18T13:13:21.154Z,4.70
2019-01-18T13:16:00.666Z,4.60
2019-01-18T13:18:30.011Z,5.57
2019-01-18T13:20:59.388Z,4.10
2019-01-18T13:23:28.740Z,4.07
2019-01-18T13:25:57.946Z,5.20
2019-01-18T13:28:27.227Z,4.60
2019-01-18T13:30:56.699Z,5.10
2019-01-18T13:33:26.984Z,5.10
2019-01-18T13:35:56.217Z,4.33
2019-01-18T13:38:25.588Z,4.47
2019-01-18T13:40:54.847Z,4.97
2019-01-18T13:43:24.063Z,4.10
2019-01-18T13:45:53.326Z,3.60
2019-01-18T13:48:22.488Z,3.67
2019-01-18T13:50:51.865Z,4.20
2019-01-18T13:53:21.021Z,3.97
2019-01-18T13:55:50.323Z,3.60
2019-01-18T13:58:19.601Z,4.00
2019-01-18T14:00:48.980Z,3.40
2019-01-18T14:03:18.208Z,4.17
2019-01-18T14:05:47.608Z,4.00
2019-01-18T14:08:16.844Z,3.30
2019-01-18T14:10:46.143Z,4.17
2019-01-18T14:13:15.356Z,4.50
2019-01-18T14:15:44.903Z,4.10
2019-01-18T14:18:14.192Z,5.17
2019-01-18T14:20:43.448Z,27.23
2019-01-18T14:23:12.753Z,7.20
2019-01-18T14:25:41.920Z,4.20
2019-01-18T14:28:12.244Z,3.37
2019-01-18T14:30:41.721Z,2.70
2019-01-18T14:33:10.892Z,3.50
2019-01-18T14:35:40.290Z,3.00
2019-01-18T14:38:09.645Z,2.10
2019-01-18T14:40:38.966Z,3.00
2019-01-18T14:43:08.274Z,2.63
2019-01-18T14:45:39.901Z,1.93
2019-01-18T14:48:09.149Z,2.20
2019-01-18T14:50:38.561Z,2.50
2019-01-18T14:53:07.989Z,2.57
2019-01-18T14:55:37.152Z,3.10
2019-01-18T14:58:09.200Z,2.53
2019-01-18T15:00:41.260Z,1.90
2019-01-18T15:03:10.837Z,2.17
2019-01-18T15:05:40.104Z,2.87
2019-01-18T15:08:09.361Z,2.30
2019-01-18T15:10:38.755Z,2.70
2019-01-18T15:13:12.045Z,2.33
2019-01-18T15:15:41.340Z,2.60
2019-01-18T15:18:10.581Z,2.10
2019-01-18T15:20:39.850Z,2.43
2019-01-18T15:23:09.334Z,2.63
2019-01-18T15:25:38.542Z,2.70
2019-01-18T15:28:07.797Z,2.67
2019-01-18T15:30:37.204Z,3.30
2019-01-18T15:33:09.469Z,2.50
2019-01-18T15:35:38.842Z,2.73
2019-01-18T15:38:10.154Z,3.13
2019-01-18T15:40:45.579Z,3.27
2019-01-18T15:43:16.847Z,2.90
2019-01-18T15:45:46.068Z,3.60
2019-01-18T15:48:15.448Z,3.60
2019-01-18T15:50:44.752Z,4.20
2019-01-18T15:53:14.157Z,3.40
2019-01-18T15:55:43.632Z,3.87
2019-01-18T15:58:12.899Z,3.40
2019-01-18T16:00:44.129Z,3.40
2019-01-18T16:03:16.204Z,3.53
2019-01-18T16:05:44.754Z,3.73
2019-01-18T16:08:14.204Z,2.70
2019-01-18T16:10:43.665Z,3.47
2019-01-18T16:13:13.612Z,3.30
2019-01-18T16:16:13.938Z,3.87
2019-01-18T16:18:43.217Z,3.27
2019-01-18T16:21:13.668Z,3.50
2019-01-18T16:23:43.021Z,4.23
2019-01-18T16:26:12.200Z,3.90
2019-01-18T16:28:41.511Z,4.00
2019-01-18T16:31:13.475Z,4.57
2019-01-18T16:33:42.729Z,4.00
2019-01-18T16:36:15.041Z,4.50
2019-01-18T16:38:44.330Z,4.13
2019-01-18T16:41:13.656Z,4.60
2019-01-18T16:43:46.556Z,5.13
2019-01-18T16:46:15.953Z,5.10
2019-01-18T16:48:45.473Z,5.10
2019-01-18T16:51:14.824Z,7.10
2019-01-18T16:53:44.033Z,5.83
2019-01-18T16:56:13.282Z,6.80
2019-01-18T16:58:42.635Z,7.10
2019-01-18T17:01:12.372Z,6.10
2019-01-18T17:03:41.653Z,7.17
2019-01-18T17:06:11.026Z,6.13
2019-01-18T17:08:42.301Z,6.63
2019-01-18T17:11:11.850Z,6.47
2019-01-18T17:13:41.945Z,6.77
2019-01-18T17:16:12.328Z,6.40
2019-01-18T17:18:41.900Z,6.90
2019-01-18T17:21:12.571Z,6.43
2019-01-18T17:23:41.869Z,6.60
2019-01-18T17:26:11.408Z,5.93
2019-01-18T17:28:40.731Z,6.80
2019-01-18T17:31:10.211Z,6.87
2019-01-18T17:33:39.453Z,6.83
2019-01-18T17:36:23.602Z,7.23
2019-01-18T17:39:21.350Z,7.33
2019-01-18T17:42:03.103Z,7.70
2019-01-18T17:45:28.129Z,7.20
2019-01-18T17:48:53.587Z,16.87
2019-01-18T17:51:50.520Z,15.17
2019-01-18T17:54:45.832Z,15.77
2019-01-18T17:57:56.264Z,11.37
2019-01-18T18:01:19.989Z,10.03
2019-01-18T18:04:31.645Z,8.70
2019-01-18T18:07:36.704Z,8.33
2019-01-18T18:10:47.820Z,7.27
2019-01-18T18:13:27.353Z,6.40
2019-01-18T18:16:23.178Z,6.60
2019-01-18T18:19:38.603Z,8.13
2019-01-18T18:22:43.578Z,8.00
2019-01-18T18:25:53.887Z,7.60
2019-01-18T18:28:58.404Z,9.33
2019-01-18T18:31:51.932Z,8.97
2019-01-18T18:34:50.541Z,14.17
2019-01-18T18:37:52.621Z,19.23
2019-01-18T18:40:29.906Z,12.73
2019-01-18T18:43:38.182Z,12.63
2019-01-18T18:46:30.590Z,8.20
2019-01-18T18:49:32.591Z,7.23
2019-01-18T18:52:45.847Z,6.93
2019-01-18T18:55:45.086Z,7.60
2019-01-18T18:58:55.320Z,8.23
2019-01-18T19:02:01.256Z,7.80
2019-01-18T19:04:58.910Z,8.00
2019-01-18T19:07:59.069Z,8.33
2019-01-18T19:11:24.796Z,8.40
2019-01-18T19:14:16.328Z,7.70
2019-01-18T19:17:03.129Z,9.30
2019-01-18T19:20:16.877Z,8.27
2019-01-18T19:23:24.454Z,9.07
2019-01-18T19:26:41.081Z,8.80
2019-01-18T19:29:25.920Z,9.73
2019-01-18T19:32:44.354Z,9.20
2019-01-18T19:35:45.428Z,9.00
2019-01-18T19:38:58.040Z,10.07
2019-01-18T19:42:26.634Z,8.63
2019-01-18T19:45:55.030Z,10.67
2019-01-18T19:49:14.465Z,17.87
2019-01-18T19:52:05.859Z,22.93
2019-01-18T19:54:57.312Z,16.27
2019-01-18T19:58:16.872Z,10.37
2019-01-18T20:01:08.609Z,9.43
2019-01-18T20:04:11.273Z,8.30
2019-01-18T20:07:27.256Z,9.20
2019-01-18T20:10:33.472Z,13.60
2019-01-18T20:13:53.133Z,11.50
2019-01-18T20:17:09.736Z,12.47
2019-01-18T20:20:01.308Z,8.60
2019-01-18T20:22:51.889Z,8.83
2019-01-18T20:25:42.442Z,8.17
2019-01-18T20:28:48.885Z,10.30
2019-01-18T20:31:41.735Z,9.37
2019-01-18T20:35:19.563Z,9.13
2019-01-18T20:38:01.749Z,8.40
2019-01-18T20:41:07.117Z,9.63
2019-01-18T20:44:16.628Z,8.20
2019-01-18T20:47:27.206Z,8.87
2019-01-18T20:50:33.000Z,6.20
2019-01-18T20:53:30.660Z,7.10
2019-01-18T20:56:35.880Z,7.63
2019-01-18T20:59:43.253Z,8.63
2019-01-18T21:02:34.501Z,7.90
2019-01-18T21:05:31.410Z,8.40
2019-01-18T21:08:26.961Z,10.75
2019-01-18T21:11:30.580Z,9.43
2019-01-18T21:14:23.676Z,9.73
2019-01-18T21:17:37.826Z,10.53
2019-01-18T21:20:34.437Z,10.60
2019-01-18T21:23:37.653Z,10.47
2019-01-18T21:26:38.606Z,13.97
2019-01-18T21:29:39.067Z,10.93
2019-01-18T21:32:36.701Z,10.10
2019-01-18T21:35:51.706Z,9.67
2019-01-18T21:39:20.145Z,10.60
2019-01-18T21:42:27.535Z,10.20
2019-01-18T21:45:39.920Z,9.53
2019-01-18T21:48:46.284Z,9.00
2019-01-18T21:52:00.649Z,10.50
2019-01-18T21:54:56.287Z,10.43
2019-01-18T21:58:01.357Z,10.00
2019-01-18T22:01:03.056Z,8.83
2019-01-18T22:03:58.148Z,10.07
2019-01-18T22:07:26.808Z,8.63
2019-01-18T22:10:09.546Z,8.83
2019-01-18T22:13:15.590Z,9.00
2019-01-18T22:16:04.497Z,9.30
2019-01-18T22:18:51.262Z,10.20
2019-01-18T22:21:59.860Z,9.07
2019-01-18T22:25:04.921Z,8.67
2019-01-18T22:27:55.653Z,9.00
2019-01-18T22:30:53.834Z,9.17
2019-01-18T22:33:44.783Z,9.67
2019-01-18T22:37:04.636Z,9.20
2019-01-18T22:39:59.538Z,8.57
2019-01-18T22:43:28.134Z,8.73
2019-01-18T22:46:19.509Z,9.03
2019-01-18T22:49:13.437Z,9.57
2019-01-18T22:52:19.859Z,8.40
2019-01-18T22:55:11.069Z,9.23
2019-01-18T22:58:21.663Z,10.00
2019-01-18T23:01:25.864Z,9.00
2019-01-18T23:04:30.322Z,9.60
2019-01-18T23:07:34.685Z,9.20
2019-01-18T23:10:21.923Z,9.13
2019-01-18T23:12:59.152Z,9.40
2019-01-18T23:15:53.557Z,9.53
2019-01-18T23:18:32.628Z,9.47
2019-01-18T23:21:22.549Z,9.80
2019-01-18T23:24:14.793Z,9.63
2019-01-18T23:27:24.050Z,9.20
2019-01-18T23:30:21.033Z,8.83
2019-01-18T23:33:37.954Z,9.17
2019-01-18T23:36:37.755Z,8.50
2019-01-18T23:39:23.574Z,8.60
2019-01-18T23:42:25.716Z,8.80
2019-01-18T23:45:33.349Z,8.13
2019-01-18T23:48:58.967Z,8.30
2019-01-18T23:51:47.845Z,8.90
2019-01-18T23:54:44.088Z,8.57
2019-01-18T23:57:23.273Z,8.20
